sensor_id;sensor_type;location;lat;lon;timestamp;temperature;humidity
45044;DHT22;30784;48.490;9.688;2024-03-02T00:02:11;8.40;68.10
45044;DHT22;30784;48.490;9.688;2024-03-02T00:04:36;8.40;68.00
45044;DHT22;30784;48.490;9.688;2024-03-02T00:07:02;8.40;67.90
45044;DHT22;30784;48.490;9.688;2024-03-02T00:09:29;8.40;67.80
45044;DHT22;30784;48.490;9.688;2024-03-02T00:11:54;8.40;67.90
45044;DHT22;30784;48.490;9.688;2024-03-02T00:14:20;8.40;68.00
45044;DHT22;30784;48.490;9.688;2024-03-02T00:16:46;8.40;68.00
45044;DHT22;30784;48.490;9.688;2024-03-02T00:19:11;8.40;68.00
45044;DHT22;30784;48.490;9.688;2024-03-02T00:21:37;8.40;67.90
45044;DHT22;30784;48.490;9.688;2024-03-02T00:24:30;8.40;67.90
45044;DHT22;30784;48.490;9.688;2024-03-02T00:26:56;8.40;67.90
45044;DHT22;30784;48.490;9.688;2024-03-02T00:29:22;8.40;67.90
45044;DHT22;30784;48.490;9.688;2024-03-02T00:31:48;8.40;67.90
45044;DHT22;30784;48.490;9.688;2024-03-02T00:34:14;8.40;67.90
45044;DHT22;30784;48.490;9.688;2024-03-02T00:36:41;8.40;67.90
45044;DHT22;30784;48.490;9.688;2024-03-02T00:39:07;8.40;67.90
45044;DHT22;30784;48.490;9.688;2024-03-02T00:41:33;8.40;67.90
45044;DHT22;30784;48.490;9.688;2024-03-02T00:44:03;8.40;68.00
45044;DHT22;30784;48.490;9.688;2024-03-02T00:46:29;8.40;68.00
45044;DHT22;30784;48.490;9.688;2024-03-02T00:48:58;8.40;68.00
45044;DHT22;30784;48.490;9.688;2024-03-02T00:51:27;8.40;67.90
45044;DHT22;30784;48.490;9.688;2024-03-02T00:53:54;8.30;67.90
45044;DHT22;30784;48.490;9.688;2024-03-02T00:56:23;8.30;68.00
45044;DHT22;30784;48.490;9.688;2024-03-02T00:58:50;8.30;68.10
45044;DHT22;30784;48.490;9.688;2024-03-02T01:01:15;8.30;68.20
45044;DHT22;30784;48.490;9.688;2024-03-02T01:03:41;8.30;68.30
45044;DHT22;30784;48.490;9.688;2024-03-02T01:06:08;8.30;68.30
45044;DHT22;30784;48.490;9.688;2024-03-02T01:08:35;8.30;68.30
45044;DHT22;30784;48.490;9.688;2024-03-02T01:11:00;8.30;68.30
45044;DHT22;30784;48.490;9.688;2024-03-02T01:13:26;8.40;68.30
45044;DHT22;30784;48.490;9.688;2024-03-02T01:15:51;8.40;68.30
45044;DHT22;30784;48.490;9.688;2024-03-02T01:18:17;8.40;68.30
45044;DHT22;30784;48.490;9.688;2024-03-02T01:20:42;8.40;68.20
45044;DHT22;30784;48.490;9.688;2024-03-02T01:23:08;8.40;68.20
45044;DHT22;30784;48.490;9.688;2024-03-02T01:25:33;8.40;68.10
45044;DHT22;30784;48.490;9.688;2024-03-02T01:27:59;8.40;68.10
45044;DHT22;30784;48.490;9.688;2024-03-02T01:30:24;8.50;68.20
45044;DHT22;30784;48.490;9.688;2024-03-02T01:32:50;8.40;68.10
45044;DHT22;30784;48.490;9.688;2024-03-02T01:35:16;8.40;68.10
45044;DHT22;30784;48.490;9.688;2024-03-02T01:37:41;8.50;68.10
45044;DHT22;30784;48.490;9.688;2024-03-02T01:40:07;8.50;68.10
45044;DHT22;30784;48.490;9.688;2024-03-02T01:42:38;8.50;68.10
45044;DHT22;30784;48.490;9.688;2024-03-02T01:45:05;8.50;68.00
45044;DHT22;30784;48.490;9.688;2024-03-02T01:47:31;8.50;68.00
45044;DHT22;30784;48.490;9.688;2024-03-02T01:49:57;8.50;68.00
45044;DHT22;30784;48.490;9.688;2024-03-02T01:52:23;8.50;68.00
45044;DHT22;30784;48.490;9.688;2024-03-02T01:54:49;8.50;68.00
45044;DHT22;30784;48.490;9.688;2024-03-02T01:57:15;8.50;68.00
45044;DHT22;30784;48.490;9.688;2024-03-02T01:59:40;8.50;68.00
45044;DHT22;30784;48.490;9.688;2024-03-02T02:02:06;8.50;68.00
45044;DHT22;30784;48.490;9.688;2024-03-02T02:04:32;8.40;68.00
45044;DHT22;30784;48.490;9.688;2024-03-02T02:06:59;8.40;68.00
45044;DHT22;30784;48.490;9.688;2024-03-02T02:09:24;8.50;68.10
45044;DHT22;30784;48.490;9.688;2024-03-02T02:11:51;8.40;68.10
45044;DHT22;30784;48.490;9.688;2024-03-02T02:14:16;8.40;68.10
45044;DHT22;30784;48.490;9.688;2024-03-02T02:16:42;8.40;68.00
45044;DHT22;30784;48.490;9.688;2024-03-02T02:19:08;8.40;68.10
45044;DHT22;30784;48.490;9.688;2024-03-02T02:21:33;8.40;68.10
45044;DHT22;30784;48.490;9.688;2024-03-02T02:23:59;8.40;68.10
45044;DHT22;30784;48.490;9.688;2024-03-02T02:26:24;8.40;68.10
45044;DHT22;30784;48.490;9.688;2024-03-02T02:28:50;8.40;68.10
45044;DHT22;30784;48.490;9.688;2024-03-02T02:31:16;8.40;68.10
45044;DHT22;30784;48.490;9.688;2024-03-02T02:33:42;8.40;68.10
45044;DHT22;30784;48.490;9.688;2024-03-02T02:36:08;8.40;68.00
45044;DHT22;30784;48.490;9.688;2024-03-02T02:38:39;8.40;68.00
45044;DHT22;30784;48.490;9.688;2024-03-02T02:41:05;8.40;68.00
45044;DHT22;30784;48.490;9.688;2024-03-02T02:43:31;8.40;68.00
45044;DHT22;30784;48.490;9.688;2024-03-02T02:45:56;8.40;68.00
45044;DHT22;30784;48.490;9.688;2024-03-02T02:48:22;8.40;68.00
45044;DHT22;30784;48.490;9.688;2024-03-02T02:50:48;8.40;68.00
45044;DHT22;30784;48.490;9.688;2024-03-02T02:53:13;8.40;68.00
45044;DHT22;30784;48.490;9.688;2024-03-02T02:55:42;8.40;67.90
45044;DHT22;30784;48.490;9.688;2024-03-02T02:58:09;8.40;67.90
45044;DHT22;30784;48.490;9.688;2024-03-02T03:00:34;8.40;67.90
45044;DHT22;30784;48.490;9.688;2024-03-02T03:03:01;8.40;67.90
45044;DHT22;30784;48.490;9.688;2024-03-02T03:05:27;8.40;67.90
45044;DHT22;30784;48.490;9.688;2024-03-02T03:07:53;8.40;67.80
45044;DHT22;30784;48.490;9.688;2024-03-02T03:10:18;8.40;67.80
45044;DHT22;30784;48.490;9.688;2024-03-02T03:12:47;8.40;67.80
45044;DHT22;30784;48.490;9.688;2024-03-02T03:15:12;8.40;67.80
45044;DHT22;30784;48.490;9.688;2024-03-02T03:17:38;8.40;67.80
45044;DHT22;30784;48.490;9.688;2024-03-02T03:20:04;8.30;67.80
45044;DHT22;30784;48.490;9.688;2024-03-02T03:22:31;8.30;67.80
45044;DHT22;30784;48.490;9.688;2024-03-02T03:24:57;8.30;67.80
45044;DHT22;30784;48.490;9.688;2024-03-02T03:27:23;8.40;67.90
45044;DHT22;30784;48.490;9.688;2024-03-02T03:29:48;8.30;67.90
45044;DHT22;30784;48.490;9.688;2024-03-02T03:32:14;8.30;67.90
45044;DHT22;30784;48.490;9.688;2024-03-02T03:34:39;8.20;67.90
45044;DHT22;30784;48.490;9.688;2024-03-02T03:37:05;8.20;68.00
45044;DHT22;30784;48.490;9.688;2024-03-02T03:39:31;8.20;68.00
45044;DHT22;30784;48.490;9.688;2024-03-02T03:41:59;8.30;68.00
45044;DHT22;30784;48.490;9.688;2024-03-02T03:44:24;8.20;68.00
45044;DHT22;30784;48.490;9.688;2024-03-02T03:46:50;8.20;68.00
45044;DHT22;30784;48.490;9.688;2024-03-02T03:49:15;8.20;68.00
45044;DHT22;30784;48.490;9.688;2024-03-02T03:51:41;8.20;68.10
45044;DHT22;30784;48.490;9.688;2024-03-02T03:54:06;8.20;68.20
45044;DHT22;30784;48.490;9.688;2024-03-02T03:56:32;8.20;68.20
45044;DHT22;30784;48.490;9.688;2024-03-02T03:58:57;8.20;68.10
45044;DHT22;30784;48.490;9.688;2024-03-02T04:01:25;8.20;68.10
45044;DHT22;30784;48.490;9.688;2024-03-02T04:03:50;8.10;68.10
45044;DHT22;30784;48.490;9.688;2024-03-02T04:06:16;8.10;68.10
45044;DHT22;30784;48.490;9.688;2024-03-02T04:08:42;8.10;68.10
45044;DHT22;30784;48.490;9.688;2024-03-02T04:11:08;8.10;68.10
45044;DHT22;30784;48.490;9.688;2024-03-02T04:13:34;8.10;68.20
45044;DHT22;30784;48.490;9.688;2024-03-02T04:15:59;8.10;68.30
45044;DHT22;30784;48.490;9.688;2024-03-02T04:18:25;8.10;68.30
45044;DHT22;30784;48.490;9.688;2024-03-02T04:20:50;8.10;68.20
45044;DHT22;30784;48.490;9.688;2024-03-02T04:23:16;8.00;68.20
45044;DHT22;30784;48.490;9.688;2024-03-02T04:25:41;8.00;68.20
45044;DHT22;30784;48.490;9.688;2024-03-02T04:28:07;8.00;68.20
45044;DHT22;30784;48.490;9.688;2024-03-02T04:30:32;8.00;68.30
45044;DHT22;30784;48.490;9.688;2024-03-02T04:32:58;8.00;68.40
45044;DHT22;30784;48.490;9.688;2024-03-02T04:35:24;8.00;68.40
45044;DHT22;30784;48.490;9.688;2024-03-02T04:37:51;7.90;68.40
45044;DHT22;30784;48.490;9.688;2024-03-02T04:40:16;7.90;68.40
45044;DHT22;30784;48.490;9.688;2024-03-02T04:42:42;7.90;68.50
45044;DHT22;30784;48.490;9.688;2024-03-02T04:45:08;7.90;68.50
45044;DHT22;30784;48.490;9.688;2024-03-02T04:47:34;7.90;68.50
45044;DHT22;30784;48.490;9.688;2024-03-02T04:49:59;7.90;68.50
45044;DHT22;30784;48.490;9.688;2024-03-02T04:52:25;7.90;68.50
45044;DHT22;30784;48.490;9.688;2024-03-02T04:54:51;7.90;68.60
45044;DHT22;30784;48.490;9.688;2024-03-02T04:57:35;7.90;68.50
45044;DHT22;30784;48.490;9.688;2024-03-02T05:00:01;7.90;68.50
45044;DHT22;30784;48.490;9.688;2024-03-02T05:02:26;7.80;68.40
45044;DHT22;30784;48.490;9.688;2024-03-02T05:04:52;7.80;68.50
45044;DHT22;30784;48.490;9.688;2024-03-02T05:07:17;7.80;68.50
45044;DHT22;30784;48.490;9.688;2024-03-02T05:09:43;7.80;68.60
45044;DHT22;30784;48.490;9.688;2024-03-02T05:12:09;7.70;68.60
45044;DHT22;30784;48.490;9.688;2024-03-02T05:14:54;7.70;68.60
45044;DHT22;30784;48.490;9.688;2024-03-02T05:17:20;7.70;68.60
45044;DHT22;30784;48.490;9.688;2024-03-02T05:19:46;7.60;68.60
45044;DHT22;30784;48.490;9.688;2024-03-02T05:22:11;7.70;68.80
45044;DHT22;30784;48.490;9.688;2024-03-02T05:24:37;7.70;68.80
45044;DHT22;30784;48.490;9.688;2024-03-02T05:27:04;7.70;68.90
45044;DHT22;30784;48.490;9.688;2024-03-02T05:29:31;7.60;68.80
45044;DHT22;30784;48.490;9.688;2024-03-02T05:31:57;7.60;68.80
45044;DHT22;30784;48.490;9.688;2024-03-02T05:34:22;7.70;68.90
45044;DHT22;30784;48.490;9.688;2024-03-02T05:36:48;7.60;68.70
45044;DHT22;30784;48.490;9.688;2024-03-02T05:39:13;7.60;68.80
45044;DHT22;30784;48.490;9.688;2024-03-02T05:41:39;7.60;68.90
45044;DHT22;30784;48.490;9.688;2024-03-02T05:44:05;7.60;68.90
45044;DHT22;30784;48.490;9.688;2024-03-02T05:46:30;7.60;68.90
45044;DHT22;30784;48.490;9.688;2024-03-02T05:48:56;7.60;68.80
45044;DHT22;30784;48.490;9.688;2024-03-02T05:51:21;7.60;68.80
45044;DHT22;30784;48.490;9.688;2024-03-02T05:53:47;7.50;68.70
45044;DHT22;30784;48.490;9.688;2024-03-02T05:56:13;7.50;68.80
45044;DHT22;30784;48.490;9.688;2024-03-02T05:58:38;7.50;68.80
45044;DHT22;30784;48.490;9.688;2024-03-02T06:01:22;7.50;68.80
45044;DHT22;30784;48.490;9.688;2024-03-02T06:03:56;7.40;68.90
45044;DHT22;30784;48.490;9.688;2024-03-02T06:06:22;7.40;69.00
45044;DHT22;30784;48.490;9.688;2024-03-02T06:08:48;7.40;69.10
45044;DHT22;30784;48.490;9.688;2024-03-02T06:11:13;7.40;69.10
45044;DHT22;30784;48.490;9.688;2024-03-02T06:13:39;7.30;69.20
45044;DHT22;30784;48.490;9.688;2024-03-02T06:16:05;7.30;69.30
45044;DHT22;30784;48.490;9.688;2024-03-02T06:18:30;7.30;69.30
45044;DHT22;30784;48.490;9.688;2024-03-02T06:20:56;7.30;69.40
45044;DHT22;30784;48.490;9.688;2024-03-02T06:23:21;7.30;69.30
45044;DHT22;30784;48.490;9.688;2024-03-02T06:25:47;7.30;69.30
45044;DHT22;30784;48.490;9.688;2024-03-02T06:28:12;7.30;69.50
45044;DHT22;30784;48.490;9.688;2024-03-02T06:30:41;7.30;69.40
45044;DHT22;30784;48.490;9.688;2024-03-02T06:33:07;7.30;69.40
45044;DHT22;30784;48.490;9.688;2024-03-02T06:35:33;7.30;69.50
45044;DHT22;30784;48.490;9.688;2024-03-02T06:37:58;7.30;69.50
45044;DHT22;30784;48.490;9.688;2024-03-02T06:40:24;7.30;69.60
45044;DHT22;30784;48.490;9.688;2024-03-02T06:42:49;7.30;69.60
45044;DHT22;30784;48.490;9.688;2024-03-02T06:45:15;7.30;69.60
45044;DHT22;30784;48.490;9.688;2024-03-02T06:47:40;7.30;69.60
45044;DHT22;30784;48.490;9.688;2024-03-02T06:50:06;7.30;69.60
45044;DHT22;30784;48.490;9.688;2024-03-02T06:52:32;7.30;69.60
45044;DHT22;30784;48.490;9.688;2024-03-02T06:54:58;7.30;69.60
45044;DHT22;30784;48.490;9.688;2024-03-02T06:57:23;7.30;69.60
45044;DHT22;30784;48.490;9.688;2024-03-02T06:59:50;7.30;69.60
45044;DHT22;30784;48.490;9.688;2024-03-02T07:02:16;7.30;69.70
45044;DHT22;30784;48.490;9.688;2024-03-02T07:04:42;7.30;69.70
45044;DHT22;30784;48.490;9.688;2024-03-02T07:07:08;7.30;69.90
45044;DHT22;30784;48.490;9.688;2024-03-02T07:09:33;7.30;69.80
45044;DHT22;30784;48.490;9.688;2024-03-02T07:11:59;7.30;69.70
45044;DHT22;30784;48.490;9.688;2024-03-02T07:14:24;7.30;69.70
45044;DHT22;30784;48.490;9.688;2024-03-02T07:17:10;7.40;69.70
45044;DHT22;30784;48.490;9.688;2024-03-02T07:19:35;7.40;69.70
45044;DHT22;30784;48.490;9.688;2024-03-02T07:22:01;7.40;69.80
45044;DHT22;30784;48.490;9.688;2024-03-02T07:24:30;7.40;69.80
45044;DHT22;30784;48.490;9.688;2024-03-02T07:26:56;7.40;69.80
45044;DHT22;30784;48.490;9.688;2024-03-02T07:29:22;7.40;69.70
45044;DHT22;30784;48.490;9.688;2024-03-02T07:31:47;7.40;69.70
45044;DHT22;30784;48.490;9.688;2024-03-02T07:34:13;7.40;69.80
45044;DHT22;30784;48.490;9.688;2024-03-02T07:36:39;7.40;69.70
45044;DHT22;30784;48.490;9.688;2024-03-02T07:39:04;7.40;69.90
45044;DHT22;30784;48.490;9.688;2024-03-02T07:41:30;7.40;69.90
45044;DHT22;30784;48.490;9.688;2024-03-02T07:43:56;7.40;69.90
45044;DHT22;30784;48.490;9.688;2024-03-02T07:46:22;7.40;70.10
45044;DHT22;30784;48.490;9.688;2024-03-02T07:48:47;7.40;70.10
45044;DHT22;30784;48.490;9.688;2024-03-02T07:51:13;7.40;70.00
45044;DHT22;30784;48.490;9.688;2024-03-02T07:53:39;7.40;70.00
45044;DHT22;30784;48.490;9.688;2024-03-02T07:56:05;7.40;70.00
45044;DHT22;30784;48.490;9.688;2024-03-02T07:58:31;7.40;70.20
45044;DHT22;30784;48.490;9.688;2024-03-02T08:00:59;7.40;70.30
45044;DHT22;30784;48.490;9.688;2024-03-02T08:03:26;7.40;70.40
45044;DHT22;30784;48.490;9.688;2024-03-02T08:05:52;7.50;70.40
45044;DHT22;30784;48.490;9.688;2024-03-02T08:08:18;7.50;70.30
45044;DHT22;30784;48.490;9.688;2024-03-02T08:10:44;7.50;70.30
45044;DHT22;30784;48.490;9.688;2024-03-02T08:13:09;7.50;70.30
45044;DHT22;30784;48.490;9.688;2024-03-02T08:15:35;7.50;70.40
45044;DHT22;30784;48.490;9.688;2024-03-02T08:18:01;7.50;70.30
45044;DHT22;30784;48.490;9.688;2024-03-02T08:20:26;7.60;70.40
45044;DHT22;30784;48.490;9.688;2024-03-02T08:22:52;7.60;70.50
45044;DHT22;30784;48.490;9.688;2024-03-02T08:25:20;7.60;70.70
45044;DHT22;30784;48.490;9.688;2024-03-02T08:27:46;7.70;71.00
45044;DHT22;30784;48.490;9.688;2024-03-02T08:30:12;7.80;71.00
45044;DHT22;30784;48.490;9.688;2024-03-02T08:32:38;7.80;70.80
45044;DHT22;30784;48.490;9.688;2024-03-02T08:35:04;7.90;71.10
45044;DHT22;30784;48.490;9.688;2024-03-02T08:37:30;8.00;71.10
45044;DHT22;30784;48.490;9.688;2024-03-02T08:39:55;8.20;71.20
45044;DHT22;30784;48.490;9.688;2024-03-02T08:42:22;8.30;71.60
45044;DHT22;30784;48.490;9.688;2024-03-02T08:44:47;8.50;71.70
45044;DHT22;30784;48.490;9.688;2024-03-02T08:47:13;8.60;71.00
45044;DHT22;30784;48.490;9.688;2024-03-02T08:49:39;8.80;70.70
45044;DHT22;30784;48.490;9.688;2024-03-02T08:52:05;9.00;70.00
45044;DHT22;30784;48.490;9.688;2024-03-02T08:54:30;9.20;69.80
45044;DHT22;30784;48.490;9.688;2024-03-02T08:56:56;9.30;69.30
45044;DHT22;30784;48.490;9.688;2024-03-02T08:59:22;9.40;68.80
45044;DHT22;30784;48.490;9.688;2024-03-02T09:01:47;9.60;68.50
45044;DHT22;30784;48.490;9.688;2024-03-02T09:04:13;9.70;68.20
45044;DHT22;30784;48.490;9.688;2024-03-02T09:06:38;9.70;67.80
45044;DHT22;30784;48.490;9.688;2024-03-02T09:09:04;9.80;67.90
45044;DHT22;30784;48.490;9.688;2024-03-02T09:11:30;10.00;67.70
45044;DHT22;30784;48.490;9.688;2024-03-02T09:13:55;10.10;67.80
45044;DHT22;30784;48.490;9.688;2024-03-02T09:16:22;10.20;67.40
45044;DHT22;30784;48.490;9.688;2024-03-02T09:18:47;10.30;67.10
45044;DHT22;30784;48.490;9.688;2024-03-02T09:21:13;10.50;66.60
45044;DHT22;30784;48.490;9.688;2024-03-02T09:23:38;10.60;66.50
45044;DHT22;30784;48.490;9.688;2024-03-02T09:26:05;10.80;66.20
45044;DHT22;30784;48.490;9.688;2024-03-02T09:28:31;10.90;65.60
45044;DHT22;30784;48.490;9.688;2024-03-02T09:30:56;11.10;65.70
45044;DHT22;30784;48.490;9.688;2024-03-02T09:33:22;11.20;65.00
45044;DHT22;30784;48.490;9.688;2024-03-02T09:35:47;11.30;65.20
45044;DHT22;30784;48.490;9.688;2024-03-02T09:38:14;11.50;64.60
45044;DHT22;30784;48.490;9.688;2024-03-02T09:40:41;11.60;64.50
45044;DHT22;30784;48.490;9.688;2024-03-02T09:43:07;11.70;64.10
45044;DHT22;30784;48.490;9.688;2024-03-02T09:45:33;11.90;63.70
45044;DHT22;30784;48.490;9.688;2024-03-02T09:47:59;12.00;63.40
45044;DHT22;30784;48.490;9.688;2024-03-02T09:50:25;12.10;62.60
45044;DHT22;30784;48.490;9.688;2024-03-02T09:52:50;12.20;62.30
45044;DHT22;30784;48.490;9.688;2024-03-02T09:55:18;12.30;61.80
45044;DHT22;30784;48.490;9.688;2024-03-02T09:57:45;12.20;61.60
45044;DHT22;30784;48.490;9.688;2024-03-02T10:00:11;12.30;61.40
45044;DHT22;30784;48.490;9.688;2024-03-02T10:02:43;12.30;60.70
45044;DHT22;30784;48.490;9.688;2024-03-02T10:05:09;12.40;61.40
45044;DHT22;30784;48.490;9.688;2024-03-02T10:07:35;12.50;61.70
45044;DHT22;30784;48.490;9.688;2024-03-02T10:10:13;12.50;61.00
45044;DHT22;30784;48.490;9.688;2024-03-02T10:12:38;12.60;61.50
45044;DHT22;30784;48.490;9.688;2024-03-02T10:15:04;12.80;61.20
45044;DHT22;30784;48.490;9.688;2024-03-02T10:17:31;13.00;60.70
45044;DHT22;30784;48.490;9.688;2024-03-02T10:19:57;13.10;59.30
45044;DHT22;30784;48.490;9.688;2024-03-02T10:22:23;13.30;60.00
45044;DHT22;30784;48.490;9.688;2024-03-02T10:24:49;13.50;59.30
45044;DHT22;30784;48.490;9.688;2024-03-02T10:27:25;13.70;58.70
45044;DHT22;30784;48.490;9.688;2024-03-02T10:29:51;13.90;59.20
45044;DHT22;30784;48.490;9.688;2024-03-02T10:32:17;14.20;58.40
45044;DHT22;30784;48.490;9.688;2024-03-02T10:34:44;14.40;58.60
45044;DHT22;30784;48.490;9.688;2024-03-02T10:37:11;14.60;57.80
45044;DHT22;30784;48.490;9.688;2024-03-02T10:39:37;14.80;55.50
45044;DHT22;30784;48.490;9.688;2024-03-02T10:42:05;15.00;56.20
45044;DHT22;30784;48.490;9.688;2024-03-02T10:44:32;15.20;54.70
45044;DHT22;30784;48.490;9.688;2024-03-02T10:47:01;15.40;53.50
45044;DHT22;30784;48.490;9.688;2024-03-02T10:49:29;15.60;54.10
45044;DHT22;30784;48.490;9.688;2024-03-02T10:51:55;15.70;52.70
45044;DHT22;30784;48.490;9.688;2024-03-02T10:54:20;15.80;52.70
45044;DHT22;30784;48.490;9.688;2024-03-02T10:56:53;15.90;51.50
45044;DHT22;30784;48.490;9.688;2024-03-02T10:59:28;16.00;50.00
45044;DHT22;30784;48.490;9.688;2024-03-02T11:01:59;16.10;50.30
45044;DHT22;30784;48.490;9.688;2024-03-02T11:04:29;16.20;49.60
45044;DHT22;30784;48.490;9.688;2024-03-02T11:06:59;16.30;50.50
45044;DHT22;30784;48.490;9.688;2024-03-02T11:09:27;16.40;49.40
45044;DHT22;30784;48.490;9.688;2024-03-02T11:15:10;16.60;50.00
45044;DHT22;30784;48.490;9.688;2024-03-02T11:17:36;16.80;49.40
45044;DHT22;30784;48.490;9.688;2024-03-02T11:20:04;16.90;49.00
45044;DHT22;30784;48.490;9.688;2024-03-02T11:22:30;17.00;49.60
45044;DHT22;30784;48.490;9.688;2024-03-02T11:24:55;17.20;48.20
45044;DHT22;30784;48.490;9.688;2024-03-02T11:28:25;17.30;47.10
45044;DHT22;30784;48.490;9.688;2024-03-02T11:32:57;17.50;44.90
45044;DHT22;30784;48.490;9.688;2024-03-02T11:35:25;17.60;45.30
45044;DHT22;30784;48.490;9.688;2024-03-02T11:37:51;17.60;45.10
45044;DHT22;30784;48.490;9.688;2024-03-02T11:40:22;17.80;44.50
45044;DHT22;30784;48.490;9.688;2024-03-02T11:42:48;17.80;44.20
45044;DHT22;30784;48.490;9.688;2024-03-02T11:45:16;17.90;44.80
45044;DHT22;30784;48.490;9.688;2024-03-02T11:47:50;17.90;43.30
45044;DHT22;30784;48.490;9.688;2024-03-02T11:50:29;17.90;42.60
45044;DHT22;30784;48.490;9.688;2024-03-02T11:52:58;17.90;42.70
45044;DHT22;30784;48.490;9.688;2024-03-02T11:55:25;17.80;41.50
45044;DHT22;30784;48.490;9.688;2024-03-02T11:57:52;17.80;41.00
45044;DHT22;30784;48.490;9.688;2024-03-02T12:00:19;17.80;41.90
45044;DHT22;30784;48.490;9.688;2024-03-02T12:02:47;17.80;41.80
45044;DHT22;30784;48.490;9.688;2024-03-02T12:05:24;17.80;42.20
45044;DHT22;30784;48.490;9.688;2024-03-02T12:07:58;17.80;42.00
45044;DHT22;30784;48.490;9.688;2024-03-02T12:10:25;17.80;41.90
45044;DHT22;30784;48.490;9.688;2024-03-02T12:13:04;17.80;41.60
45044;DHT22;30784;48.490;9.688;2024-03-02T12:15:31;17.70;42.20
45044;DHT22;30784;48.490;9.688;2024-03-02T12:17:59;17.70;41.70
45044;DHT22;30784;48.490;9.688;2024-03-02T12:20:27;17.80;41.10
45044;DHT22;30784;48.490;9.688;2024-03-02T12:22:57;17.90;40.80
45044;DHT22;30784;48.490;9.688;2024-03-02T12:25:23;18.00;41.30
45044;DHT22;30784;48.490;9.688;2024-03-02T12:27:50;18.10;40.40
45044;DHT22;30784;48.490;9.688;2024-03-02T12:30:20;18.10;40.00
45044;DHT22;30784;48.490;9.688;2024-03-02T12:32:46;18.20;40.90
45044;DHT22;30784;48.490;9.688;2024-03-02T12:35:13;18.30;39.60
45044;DHT22;30784;48.490;9.688;2024-03-02T12:37:46;18.40;40.10
45044;DHT22;30784;48.490;9.688;2024-03-02T12:40:12;18.50;40.20
45044;DHT22;30784;48.490;9.688;2024-03-02T12:42:41;18.60;40.40
45044;DHT22;30784;48.490;9.688;2024-03-02T12:45:08;18.60;39.10
45044;DHT22;30784;48.490;9.688;2024-03-02T12:47:34;18.80;38.60
45044;DHT22;30784;48.490;9.688;2024-03-02T12:50:00;18.80;37.70
45044;DHT22;30784;48.490;9.688;2024-03-02T12:52:26;18.80;38.30
45044;DHT22;30784;48.490;9.688;2024-03-02T12:54:52;18.80;38.50
45044;DHT22;30784;48.490;9.688;2024-03-02T12:57:20;18.90;38.40
45044;DHT22;30784;48.490;9.688;2024-03-02T12:59:47;18.80;38.50
45044;DHT22;30784;48.490;9.688;2024-03-02T13:02:19;18.80;38.20
45044;DHT22;30784;48.490;9.688;2024-03-02T13:04:50;18.80;38.20
45044;DHT22;30784;48.490;9.688;2024-03-02T13:07:17;18.80;37.30
45044;DHT22;30784;48.490;9.688;2024-03-02T13:09:45;18.70;36.80
45044;DHT22;30784;48.490;9.688;2024-03-02T13:12:11;18.70;36.00
45044;DHT22;30784;48.490;9.688;2024-03-02T13:14:37;18.70;35.80
45044;DHT22;30784;48.490;9.688;2024-03-02T13:17:02;18.60;35.90
45044;DHT22;30784;48.490;9.688;2024-03-02T13:19:31;18.70;36.50
45044;DHT22;30784;48.490;9.688;2024-03-02T13:21:57;18.60;37.30
45044;DHT22;30784;48.490;9.688;2024-03-02T13:24:23;18.60;38.00
45044;DHT22;30784;48.490;9.688;2024-03-02T13:26:53;18.60;38.40
45044;DHT22;30784;48.490;9.688;2024-03-02T13:29:22;18.60;38.80
45044;DHT22;30784;48.490;9.688;2024-03-02T13:31:48;18.60;39.20
45044;DHT22;30784;48.490;9.688;2024-03-02T13:34:14;18.70;39.30
45044;DHT22;30784;48.490;9.688;2024-03-02T13:36:39;18.70;39.30
45044;DHT22;30784;48.490;9.688;2024-03-02T13:39:05;18.60;38.90
45044;DHT22;30784;48.490;9.688;2024-03-02T13:41:32;18.60;39.20
45044;DHT22;30784;48.490;9.688;2024-03-02T13:43:57;18.60;39.40
45044;DHT22;30784;48.490;9.688;2024-03-02T13:46:26;18.60;39.30
45044;DHT22;30784;48.490;9.688;2024-03-02T13:48:52;18.60;39.20
45044;DHT22;30784;48.490;9.688;2024-03-02T13:51:18;18.60;39.20
45044;DHT22;30784;48.490;9.688;2024-03-02T13:53:43;18.60;39.10
45044;DHT22;30784;48.490;9.688;2024-03-02T13:56:09;18.60;39.40
45044;DHT22;30784;48.490;9.688;2024-03-02T13:58:35;18.60;39.20
45044;DHT22;30784;48.490;9.688;2024-03-02T14:01:00;18.50;39.10
45044;DHT22;30784;48.490;9.688;2024-03-02T14:03:26;18.50;39.10
45044;DHT22;30784;48.490;9.688;2024-03-02T14:05:53;18.50;39.20
45044;DHT22;30784;48.490;9.688;2024-03-02T14:08:18;18.40;38.30
45044;DHT22;30784;48.490;9.688;2024-03-02T14:10:44;18.40;38.30
45044;DHT22;30784;48.490;9.688;2024-03-02T14:13:10;18.30;38.20
45044;DHT22;30784;48.490;9.688;2024-03-02T14:15:35;18.30;38.00
45044;DHT22;30784;48.490;9.688;2024-03-02T14:18:04;18.20;38.30
45044;DHT22;30784;48.490;9.688;2024-03-02T14:20:30;18.10;38.30
45044;DHT22;30784;48.490;9.688;2024-03-02T14:22:55;18.10;38.80
45044;DHT22;30784;48.490;9.688;2024-03-02T14:25:21;18.00;39.20
45044;DHT22;30784;48.490;9.688;2024-03-02T14:27:46;18.00;39.60
45044;DHT22;30784;48.490;9.688;2024-03-02T14:30:12;17.90;39.90
45044;DHT22;30784;48.490;9.688;2024-03-02T14:32:38;17.90;40.40
45044;DHT22;30784;48.490;9.688;2024-03-02T14:35:04;17.80;41.10
45044;DHT22;30784;48.490;9.688;2024-03-02T14:37:30;17.80;41.20
45044;DHT22;30784;48.490;9.688;2024-03-02T14:39:55;17.70;41.50
45044;DHT22;30784;48.490;9.688;2024-03-02T14:42:22;17.70;41.90
45044;DHT22;30784;48.490;9.688;2024-03-02T14:44:47;17.60;41.90
45044;DHT22;30784;48.490;9.688;2024-03-02T14:47:13;17.50;42.40
45044;DHT22;30784;48.490;9.688;2024-03-02T14:49:39;17.40;42.40
45044;DHT22;30784;48.490;9.688;2024-03-02T14:52:06;17.30;42.70
45044;DHT22;30784;48.490;9.688;2024-03-02T14:54:32;17.20;42.90
45044;DHT22;30784;48.490;9.688;2024-03-02T14:56:58;17.10;42.90
45044;DHT22;30784;48.490;9.688;2024-03-02T14:59:23;17.00;43.20
45044;DHT22;30784;48.490;9.688;2024-03-02T15:01:49;16.90;43.40
45044;DHT22;30784;48.490;9.688;2024-03-02T15:04:15;16.80;43.60
45044;DHT22;30784;48.490;9.688;2024-03-02T15:06:42;16.70;43.90
45044;DHT22;30784;48.490;9.688;2024-03-02T15:09:07;16.60;44.20
45044;DHT22;30784;48.490;9.688;2024-03-02T15:11:33;16.50;44.60
45044;DHT22;30784;48.490;9.688;2024-03-02T15:13:59;16.30;44.10
45044;DHT22;30784;48.490;9.688;2024-03-02T15:16:25;16.30;44.50
45044;DHT22;30784;48.490;9.688;2024-03-02T15:18:50;16.20;44.50
45044;DHT22;30784;48.490;9.688;2024-03-02T15:21:16;16.10;44.80
45044;DHT22;30784;48.490;9.688;2024-03-02T15:23:41;16.00;44.90
45044;DHT22;30784;48.490;9.688;2024-03-02T15:26:07;16.00;45.40
45044;DHT22;30784;48.490;9.688;2024-03-02T15:28:32;15.90;45.70
45044;DHT22;30784;48.490;9.688;2024-03-02T15:30:58;15.70;45.90
45044;DHT22;30784;48.490;9.688;2024-03-02T15:33:23;15.60;46.20
45044;DHT22;30784;48.490;9.688;2024-03-02T15:35:54;15.60;46.40
45044;DHT22;30784;48.490;9.688;2024-03-02T15:38:20;15.50;46.20
45044;DHT22;30784;48.490;9.688;2024-03-02T15:40:45;15.40;46.20
45044;DHT22;30784;48.490;9.688;2024-03-02T15:43:11;15.30;46.30